createdAt,value
2018-07-23T00:01:11.258Z,20.85
2018-07-23T00:03:39.578Z,20.77
2018-07-23T00:06:07.927Z,20.69
2018-07-23T00:08:36.267Z,20.63
2018-07-23T00:11:05.003Z,20.57
2018-07-23T00:13:33.321Z,20.53
2018-07-23T00:16:01.673Z,20.47
2018-07-23T00:18:30.024Z,20.44
2018-07-23T00:20:58.365Z,20.42
2018-07-23T00:23:26.689Z,20.40
2018-07-23T00:25:54.999Z,20.38
2018-07-23T00:28:23.379Z,20.33
2018-07-23T00:30:51.717Z,20.29
2018-07-23T00:33:20.084Z,20.26
2018-07-23T00:35:48.444Z,20.21
2018-07-23T00:38:16.783Z,20.17
2018-07-23T00:40:45.126Z,20.14
2018-07-23T00:43:13.471Z,20.09
2018-07-23T00:45:42.469Z,20.05
2018-07-23T00:48:10.827Z,20.04
2018-07-23T00:50:39.219Z,20.03
2018-07-23T00:53:07.580Z,20.00
2018-07-23T00:55:35.918Z,19.94
2018-07-23T00:58:04.309Z,19.88
2018-07-23T01:00:32.676Z,19.83
2018-07-23T01:03:06.912Z,19.77
2018-07-23T01:05:37.363Z,19.73
2018-07-23T01:08:06.111Z,19.68
2018-07-23T01:10:34.442Z,19.65
2018-07-23T01:13:02.753Z,19.58
2018-07-23T01:15:31.088Z,19.55
2018-07-23T01:17:59.409Z,19.52
2018-07-23T01:20:27.749Z,19.47
2018-07-23T01:22:56.089Z,19.45
2018-07-23T01:25:24.449Z,19.42
2018-07-23T01:27:52.798Z,19.39
2018-07-23T01:30:21.137Z,19.38
2018-07-23T01:32:49.440Z,19.37
2018-07-23T01:35:17.741Z,19.34
2018-07-23T01:37:46.099Z,19.34
2018-07-23T01:40:14.451Z,19.34
2018-07-23T01:42:42.900Z,19.32
2018-07-23T01:45:11.226Z,19.25
2018-07-23T01:47:39.590Z,19.21
2018-07-23T01:50:07.942Z,19.19
2018-07-23T01:52:36.409Z,19.19
2018-07-23T01:55:05.011Z,19.17
2018-07-23T01:57:33.377Z,19.14
2018-07-23T02:00:01.719Z,19.12
2018-07-23T02:02:30.054Z,19.09
2018-07-23T02:04:58.404Z,19.06
2018-07-23T02:07:26.792Z,19.05
2018-07-23T02:09:55.145Z,19.03
2018-07-23T02:12:23.487Z,19.02
2018-07-23T02:14:51.862Z,19.04
2018-07-23T02:17:20.192Z,19.07
2018-07-23T02:19:48.552Z,19.07
2018-07-23T02:22:16.874Z,19.09
2018-07-23T02:24:45.190Z,19.09
2018-07-23T02:27:13.534Z,19.11
2018-07-23T02:29:41.933Z,19.15
2018-07-23T02:32:10.459Z,19.18
2018-07-23T02:34:38.805Z,19.19
2018-07-23T02:37:07.620Z,19.20
2018-07-23T02:39:36.030Z,19.23
2018-07-23T02:42:04.395Z,19.25
2018-07-23T02:44:33.303Z,19.27
2018-07-23T02:47:01.809Z,19.29
2018-07-23T02:49:30.180Z,19.29
2018-07-23T02:51:58.506Z,19.28
2018-07-23T02:54:26.884Z,19.29
2018-07-23T02:56:55.243Z,19.29
2018-07-23T02:59:23.752Z,19.31
2018-07-23T03:01:52.065Z,19.31
2018-07-23T03:04:20.424Z,19.31
2018-07-23T03:06:48.741Z,19.30
2018-07-23T03:09:17.125Z,19.29
2018-07-23T03:11:45.470Z,19.27
2018-07-23T03:14:13.835Z,19.30
2018-07-23T03:16:42.173Z,19.29
2018-07-23T03:19:10.529Z,19.29
2018-07-23T03:21:38.878Z,19.30
2018-07-23T03:24:07.222Z,19.32
2018-07-23T03:26:35.558Z,19.32
2018-07-23T03:29:03.923Z,19.31
2018-07-23T03:31:32.234Z,19.29
2018-07-23T03:34:00.579Z,19.28
2018-07-23T03:36:28.907Z,19.27
2018-07-23T03:38:57.370Z,19.27
2018-07-23T03:41:25.727Z,19.27
2018-07-23T03:43:54.092Z,19.28
2018-07-23T03:46:22.411Z,19.25
2018-07-23T03:48:50.879Z,19.22
2018-07-23T03:51:19.228Z,19.20
2018-07-23T03:53:47.570Z,19.18
2018-07-23T03:56:15.892Z,19.15
2018-07-23T03:58:44.279Z,19.15
2018-07-23T04:01:12.599Z,19.15
2018-07-23T04:03:41.072Z,19.16
2018-07-23T04:06:09.400Z,19.16
2018-07-23T04:08:37.833Z,19.15
2018-07-23T04:11:06.315Z,19.13
2018-07-23T04:13:34.657Z,19.14
2018-07-23T04:16:03.041Z,19.15
2018-07-23T04:18:31.421Z,19.15
2018-07-23T04:20:59.718Z,19.15
2018-07-23T04:23:28.069Z,19.23
2018-07-23T04:25:56.423Z,19.38
2018-07-23T04:28:24.774Z,19.70
2018-07-23T04:30:53.101Z,20.22
2018-07-23T04:33:21.455Z,20.93
2018-07-23T04:35:49.827Z,21.25
2018-07-23T04:38:18.183Z,21.35
2018-07-23T04:40:46.590Z,21.44
2018-07-23T04:43:14.931Z,21.78
2018-07-23T04:45:43.292Z,22.50
2018-07-23T04:48:11.633Z,23.31
2018-07-23T04:50:40.310Z,24.04
2018-07-23T04:53:08.614Z,24.69
2018-07-23T04:55:36.948Z,25.22
2018-07-23T04:58:05.367Z,25.70
2018-07-23T05:00:33.709Z,26.16
2018-07-23T05:03:02.030Z,26.53
2018-07-23T05:05:30.349Z,26.90
2018-07-23T05:07:58.693Z,27.27
2018-07-23T05:10:27.044Z,27.57
2018-07-23T05:12:55.505Z,27.87
2018-07-23T05:15:23.876Z,28.21
2018-07-23T05:17:52.217Z,28.49
2018-07-23T05:20:20.530Z,28.74
2018-07-23T05:22:48.828Z,28.95
2018-07-23T05:25:17.149Z,29.21
2018-07-23T05:27:45.519Z,29.44
2018-07-23T05:30:13.901Z,29.69
2018-07-23T05:32:42.259Z,29.91
2018-07-23T05:35:10.651Z,30.03
2018-07-23T05:37:39.010Z,29.96
2018-07-23T05:40:07.569Z,30.05
2018-07-23T05:42:35.870Z,30.18
2018-07-23T05:45:04.669Z,30.22
2018-07-23T05:47:33.019Z,30.17
2018-07-23T05:50:01.414Z,30.11
2018-07-23T05:52:29.730Z,29.94
2018-07-23T05:54:58.168Z,29.70
2018-07-23T05:57:26.524Z,29.56
2018-07-23T05:59:54.896Z,29.33
2018-07-23T06:02:23.267Z,28.99
2018-07-23T06:04:51.811Z,28.53
2018-07-23T06:07:20.184Z,28.04
2018-07-23T06:09:48.528Z,27.62
2018-07-23T06:12:16.935Z,27.27
2018-07-23T06:14:45.330Z,27.01
2018-07-23T06:17:13.719Z,26.65
2018-07-23T06:19:42.054Z,26.45
2018-07-23T06:22:10.451Z,26.33
2018-07-23T06:24:38.804Z,26.26
2018-07-23T06:27:07.147Z,26.17
2018-07-23T06:29:35.530Z,25.97
2018-07-23T06:32:03.880Z,25.69
2018-07-23T06:34:32.248Z,25.59
2018-07-23T06:37:00.620Z,25.52
2018-07-23T06:39:29.009Z,25.36
2018-07-23T06:41:57.373Z,25.16
2018-07-23T06:44:25.734Z,24.88
2018-07-23T06:46:54.077Z,24.76
2018-07-23T06:49:22.537Z,24.65
2018-07-23T06:51:50.865Z,24.48
2018-07-23T06:54:19.307Z,24.48
2018-07-23T06:56:47.629Z,24.52
2018-07-23T06:59:15.944Z,24.53
2018-07-23T07:01:44.311Z,24.52
2018-07-23T07:04:12.766Z,24.54
2018-07-23T07:06:41.115Z,24.54
2018-07-23T07:09:10.455Z,24.50
2018-07-23T07:11:39.058Z,24.44
2018-07-23T07:14:07.962Z,24.38
2018-07-23T07:16:36.344Z,24.35
2018-07-23T07:19:04.683Z,24.28
2018-07-23T07:21:32.999Z,24.31
2018-07-23T07:24:01.337Z,24.38
2018-07-23T07:26:29.655Z,24.39
2018-07-23T07:28:58.093Z,24.36
2018-07-23T07:31:26.526Z,24.23
2018-07-23T07:33:54.876Z,24.27
2018-07-23T07:36:23.229Z,24.30
2018-07-23T07:38:51.599Z,24.37
2018-07-23T07:41:19.960Z,24.50
2018-07-23T07:43:48.304Z,24.49
2018-07-23T07:46:16.724Z,24.44
2018-07-23T07:48:45.084Z,24.38
2018-07-23T07:51:13.461Z,24.40
2018-07-23T07:53:41.928Z,24.45
2018-07-23T07:56:10.314Z,24.44
2018-07-23T07:58:38.644Z,24.43
2018-07-23T08:01:07.050Z,24.43
2018-07-23T08:03:35.409Z,24.46
2018-07-23T08:06:03.799Z,24.46
2018-07-23T08:08:32.226Z,24.42
2018-07-23T08:11:00.585Z,24.40
2018-07-23T08:13:29.059Z,24.44
2018-07-23T08:15:57.433Z,24.47
2018-07-23T08:18:25.753Z,24.47
2018-07-23T08:20:54.115Z,24.47
2018-07-23T08:23:22.493Z,24.44
2018-07-23T08:25:50.924Z,24.45
2018-07-23T08:28:19.255Z,24.47
2018-07-23T08:30:47.574Z,24.52
2018-07-23T08:33:15.991Z,24.61
2018-07-23T08:35:44.357Z,24.65
2018-07-23T08:38:12.735Z,24.69
2018-07-23T08:40:41.113Z,24.73
2018-07-23T08:43:09.513Z,24.77
2018-07-23T08:45:37.895Z,24.90
2018-07-23T08:48:06.265Z,24.97
2018-07-23T08:50:34.835Z,24.96
2018-07-23T08:53:03.173Z,24.88
2018-07-23T08:55:31.509Z,24.88
2018-07-23T08:57:59.838Z,24.81
2018-07-23T09:00:28.312Z,24.89
2018-07-23T09:02:56.668Z,25.01
2018-07-23T09:05:25.079Z,25.07
2018-07-23T09:07:53.408Z,25.08
2018-07-23T09:10:21.752Z,25.08
2018-07-23T09:12:50.176Z,25.11
2018-07-23T09:15:18.559Z,25.18
2018-07-23T09:17:46.900Z,25.18
2018-07-23T09:20:15.265Z,25.18
2018-07-23T09:22:43.636Z,25.26
2018-07-23T09:25:12.031Z,25.33
2018-07-23T09:27:40.418Z,25.41
2018-07-23T09:31:11.959Z,25.38
2018-07-23T09:33:40.846Z,25.28
2018-07-23T09:36:09.572Z,25.24
2018-07-23T09:38:37.925Z,25.28
2018-07-23T09:41:06.559Z,25.41
2018-07-23T09:43:34.931Z,25.41
2018-07-23T09:46:03.293Z,25.41
2018-07-23T09:48:31.667Z,25.48
2018-07-23T09:51:00.052Z,25.52
2018-07-23T09:53:28.401Z,25.62
2018-07-23T09:55:56.724Z,25.67
2018-07-23T09:58:25.051Z,25.72
2018-07-23T10:01:01.591Z,25.66
2018-07-23T10:03:29.931Z,25.65
2018-07-23T10:05:58.289Z,25.70
2018-07-23T10:08:26.636Z,25.76
2018-07-23T10:10:54.987Z,25.77
2018-07-23T10:13:23.332Z,25.74
2018-07-23T10:15:51.686Z,25.77
2018-07-23T10:18:20.014Z,25.76
2018-07-23T10:20:48.370Z,25.80
2018-07-23T10:23:16.710Z,25.85
2018-07-23T10:25:45.061Z,25.87
2018-07-23T10:28:13.403Z,25.87
2018-07-23T10:30:41.876Z,25.82
2018-07-23T10:33:10.223Z,25.71
2018-07-23T10:35:38.676Z,25.61
2018-07-23T10:38:07.075Z,25.67
2018-07-23T10:40:35.432Z,25.85
2018-07-23T10:43:03.821Z,25.96
2018-07-23T10:45:32.159Z,25.99
2018-07-23T10:48:00.449Z,25.93
2018-07-23T10:50:28.827Z,25.85
2018-07-23T10:52:57.132Z,25.88
2018-07-23T10:55:25.475Z,25.89
2018-07-23T10:57:53.960Z,26.01
2018-07-23T11:00:22.300Z,26.14
2018-07-23T11:02:50.620Z,26.14
2018-07-23T11:05:19.011Z,26.16
2018-07-23T11:07:47.340Z,26.18
2018-07-23T11:10:15.756Z,26.24
2018-07-23T11:12:44.177Z,26.27
2018-07-23T11:15:12.539Z,26.33
2018-07-23T11:17:40.849Z,26.40
2018-07-23T11:20:11.401Z,26.53
2018-07-23T11:22:40.040Z,26.60
2018-07-23T11:25:38.504Z,26.66
2018-07-23T11:27:36.797Z,26.72
2018-07-23T11:30:05.658Z,26.76
2018-07-23T11:32:34.497Z,26.77
2018-07-23T11:35:02.830Z,26.66
2018-07-23T11:37:31.329Z,26.56
2018-07-23T11:39:59.644Z,26.60
2018-07-23T11:42:28.045Z,26.73
2018-07-23T11:44:56.392Z,26.86
2018-07-23T11:47:25.018Z,26.92
2018-07-23T11:49:53.434Z,26.91
2018-07-23T11:52:21.800Z,26.96
2018-07-23T11:54:50.152Z,27.02
2018-07-23T11:57:18.472Z,27.06
2018-07-23T11:59:46.923Z,27.11
2018-07-23T12:02:15.252Z,27.11
2018-07-23T12:04:43.776Z,27.21
2018-07-23T12:07:11.938Z,27.31
2018-07-23T12:09:40.257Z,27.34
2018-07-23T12:12:08.618Z,27.35
2018-07-23T12:14:37.077Z,27.36
2018-07-23T12:17:05.745Z,27.36
2018-07-23T12:19:34.105Z,27.37
2018-07-23T12:22:02.536Z,27.24
2018-07-23T12:24:30.992Z,27.22
2018-07-23T12:26:59.416Z,27.23
2018-07-23T12:29:28.470Z,27.25
2018-07-23T12:31:56.828Z,27.27
2018-07-23T12:34:25.114Z,27.25
2018-07-23T12:36:53.450Z,27.25
2018-07-23T12:39:21.950Z,27.33
2018-07-23T12:41:50.256Z,27.46
2018-07-23T12:44:18.606Z,27.50
2018-07-23T12:46:47.001Z,27.52
2018-07-23T12:49:15.315Z,27.57
2018-07-23T12:51:46.501Z,27.55
2018-07-23T12:54:14.804Z,27.48
2018-07-23T12:56:43.226Z,27.35
2018-07-23T12:59:11.794Z,27.21
2018-07-23T13:01:40.249Z,27.19
2018-07-23T13:04:08.557Z,27.24
2018-07-23T13:06:37.020Z,27.33
2018-07-23T13:09:08.667Z,27.48
2018-07-23T13:11:37.120Z,27.49
2018-07-23T13:14:05.494Z,27.40
2018-07-23T13:16:33.877Z,27.40
2018-07-23T13:19:02.442Z,27.46
2018-07-23T13:21:30.903Z,27.50
2018-07-23T13:23:59.217Z,27.63
2018-07-23T13:26:27.602Z,27.67
2018-07-23T13:28:55.956Z,27.68
2018-07-23T13:31:24.496Z,27.69
2018-07-23T13:33:52.867Z,27.73
2018-07-23T13:36:21.275Z,27.78
2018-07-23T13:38:49.748Z,27.87
2018-07-23T13:41:18.112Z,27.94
2018-07-23T13:43:46.485Z,28.00
2018-07-23T13:46:14.837Z,28.03
2018-07-23T13:48:43.174Z,28.05
2018-07-23T13:51:11.558Z,28.11
2018-07-23T13:53:39.968Z,28.05
2018-07-23T13:56:08.361Z,27.94
2018-07-23T13:58:36.692Z,27.83
2018-07-23T14:01:05.061Z,27.69
2018-07-23T14:03:33.387Z,27.62
2018-07-23T14:06:01.898Z,27.54
2018-07-23T14:08:30.335Z,27.55
2018-07-23T14:10:58.710Z,27.65
2018-07-23T14:13:27.107Z,27.74
2018-07-23T14:15:55.632Z,27.80
2018-07-23T14:18:24.014Z,27.89
2018-07-23T14:20:52.475Z,28.03
2018-07-23T14:23:21.402Z,27.98
2018-07-23T14:25:49.748Z,27.97
2018-07-23T14:28:18.158Z,28.01
2018-07-23T14:30:46.517Z,28.03
2018-07-23T14:33:16.061Z,28.06
2018-07-23T14:35:46.701Z,28.06
2018-07-23T14:38:15.166Z,28.14
2018-07-23T14:40:46.418Z,28.20
2018-07-23T14:43:19.937Z,28.25
2018-07-23T14:45:48.498Z,28.34
2018-07-23T14:48:17.148Z,28.42
2018-07-23T14:50:45.706Z,28.48
2018-07-23T14:53:14.074Z,28.54
2018-07-23T14:55:42.576Z,28.58
2018-07-23T14:58:10.886Z,28.58
2018-07-23T15:00:39.284Z,28.51
2018-07-23T15:03:07.856Z,28.46
2018-07-23T15:05:36.224Z,28.47
2018-07-23T15:08:04.723Z,28.55
2018-07-23T15:10:33.124Z,28.55
2018-07-23T15:13:01.457Z,28.53
2018-07-23T15:15:29.803Z,28.55
2018-07-23T15:17:58.138Z,28.55
2018-07-23T15:20:26.487Z,28.61
2018-07-23T15:22:55.001Z,28.53
2018-07-23T15:25:23.315Z,28.50
2018-07-23T15:27:51.689Z,28.52
2018-07-23T15:30:20.404Z,28.55
2018-07-23T15:32:48.716Z,28.66
2018-07-23T15:35:17.944Z,28.68
2018-07-23T15:37:46.263Z,28.62
2018-07-23T15:40:14.817Z,28.67
2018-07-23T15:42:43.172Z,28.69
2018-07-23T15:45:11.603Z,28.72
2018-07-23T15:47:40.428Z,28.75
2018-07-23T15:50:09.014Z,28.74
2018-07-23T15:52:37.722Z,28.68
2018-07-23T15:55:06.282Z,28.62
2018-07-23T15:57:34.878Z,28.64
2018-07-23T16:00:03.241Z,28.68
2018-07-23T16:02:31.981Z,28.68
2018-07-23T16:05:00.319Z,28.74
2018-07-23T16:07:28.785Z,28.74
2018-07-23T16:09:57.202Z,28.73
2018-07-23T16:12:25.547Z,28.70
2018-07-23T16:14:54.981Z,28.68
2018-07-23T16:17:23.303Z,28.62
2018-07-23T16:19:52.486Z,28.60
2018-07-23T16:22:21.084Z,28.58
2018-07-23T16:24:49.394Z,28.62
2018-07-23T16:27:17.840Z,28.66
2018-07-23T16:29:46.135Z,28.67
2018-07-23T16:32:14.494Z,28.66
2018-07-23T16:34:42.823Z,28.61
2018-07-23T16:37:11.186Z,28.64
2018-07-23T16:39:39.488Z,28.59
2018-07-23T16:42:07.877Z,28.53
2018-07-23T16:44:36.239Z,28.49
2018-07-23T16:47:04.640Z,28.49
2018-07-23T16:49:32.948Z,28.47
2018-07-23T16:52:01.221Z,28.43
2018-07-23T16:54:29.928Z,28.41
2018-07-23T16:56:58.266Z,28.38
2018-07-23T16:59:26.634Z,28.37
2018-07-23T17:01:54.938Z,28.37
2018-07-23T17:04:23.274Z,28.35
2018-07-23T17:06:51.601Z,28.29
2018-07-23T17:09:20.012Z,28.25
2018-07-23T17:11:48.328Z,28.27
2018-07-23T17:14:16.703Z,28.28
2018-07-23T17:16:45.059Z,28.25
2018-07-23T17:19:13.391Z,28.22
2018-07-23T17:21:41.756Z,28.20
2018-07-23T17:24:10.128Z,28.13
2018-07-23T17:26:38.458Z,28.10
2018-07-23T17:29:06.924Z,28.08
2018-07-23T17:31:35.231Z,28.09
2018-07-23T17:34:03.560Z,28.06
2018-07-23T17:36:31.900Z,28.04
2018-07-23T17:39:00.266Z,28.02
2018-07-23T17:41:28.608Z,28.00
2018-07-23T17:43:56.941Z,27.97
2018-07-23T17:46:25.253Z,27.94
2018-07-23T17:48:53.580Z,27.89
2018-07-23T17:51:21.895Z,27.84
2018-07-23T17:53:50.532Z,27.76
2018-07-23T17:56:18.861Z,27.69
2018-07-23T17:58:47.176Z,27.68
2018-07-23T18:01:15.572Z,27.68
2018-07-23T18:03:43.856Z,27.65
2018-07-23T18:06:12.160Z,27.64
2018-07-23T18:08:40.467Z,27.64
2018-07-23T18:11:08.879Z,27.63
2018-07-23T18:13:37.187Z,27.64
2018-07-23T18:16:05.522Z,27.64
2018-07-23T18:18:33.853Z,27.63
2018-07-23T18:21:02.314Z,27.62
2018-07-23T18:23:31.242Z,27.57
2018-07-23T18:26:00.022Z,27.55
2018-07-23T18:28:28.530Z,27.56
2018-07-23T18:30:56.886Z,27.54
2018-07-23T18:33:25.221Z,27.53
2018-07-23T18:35:53.533Z,27.48
2018-07-23T18:38:21.950Z,27.41
2018-07-23T18:40:50.309Z,27.36
2018-07-23T18:43:18.631Z,27.28
2018-07-23T18:45:46.961Z,27.29
2018-07-23T18:49:32.112Z,27.26
2018-07-23T18:52:00.421Z,27.19
2018-07-23T18:54:29.946Z,27.12
2018-07-23T18:56:59.564Z,27.09
2018-07-23T18:59:27.931Z,27.01
2018-07-23T19:01:57.034Z,26.91
2018-07-23T19:04:25.418Z,26.83
2018-07-23T19:06:53.749Z,26.75
2018-07-23T19:09:23.573Z,26.64
2018-07-23T19:11:53.012Z,26.53
2018-07-23T19:14:21.563Z,26.41
2018-07-23T19:16:50.910Z,26.31
2018-07-23T19:19:19.200Z,26.23
2018-07-23T19:21:47.525Z,26.19
2018-07-23T19:24:15.891Z,26.11
2018-07-23T19:26:44.260Z,26.00
2018-07-23T19:29:12.579Z,25.91
2018-07-23T19:31:40.989Z,25.84
2018-07-23T19:34:09.366Z,25.77
2018-07-23T19:36:37.750Z,25.71
2018-07-23T19:39:09.706Z,25.64
2018-07-23T19:41:38.610Z,25.54
2018-07-23T19:44:07.776Z,25.47
2018-07-23T19:46:36.113Z,25.38
2018-07-23T19:49:04.637Z,25.31
2018-07-23T19:51:33.131Z,25.22
2018-07-23T19:54:01.507Z,25.12
2018-07-23T19:56:29.820Z,25.02
2018-07-23T19:58:58.218Z,24.94
2018-07-23T20:01:26.599Z,24.90
2018-07-23T20:03:54.896Z,24.88
2018-07-23T20:06:24.604Z,24.85
2018-07-23T20:08:53.941Z,24.81
2018-07-23T20:11:23.009Z,24.79
2018-07-23T20:13:51.537Z,24.76
2018-07-23T20:16:20.040Z,24.74
2018-07-23T20:18:48.404Z,24.70
2018-07-23T20:21:16.835Z,24.66
2018-07-23T20:23:45.442Z,24.57
2018-07-23T20:26:13.860Z,24.49
2018-07-23T20:28:42.627Z,24.38
2018-07-23T20:31:10.928Z,24.32
2018-07-23T20:33:39.285Z,24.29
2018-07-23T20:36:07.667Z,24.20
2018-07-23T20:38:36.461Z,24.11
2018-07-23T20:41:04.847Z,24.01
2018-07-23T20:43:33.882Z,23.92
2018-07-23T20:46:02.521Z,23.86
2018-07-23T20:48:30.847Z,23.76
2018-07-23T20:50:59.207Z,23.70
2018-07-23T20:53:27.614Z,23.62
2018-07-23T20:55:55.928Z,23.52
2018-07-23T20:58:24.515Z,23.45
2018-07-23T21:00:52.869Z,23.38
2018-07-23T21:03:21.278Z,23.34
2018-07-23T21:05:49.599Z,23.31
2018-07-23T21:08:18.015Z,23.27
2018-07-23T21:10:46.357Z,23.22
2018-07-23T21:13:14.687Z,23.17
2018-07-23T21:15:43.032Z,23.15
2018-07-23T21:18:11.364Z,23.15
2018-07-23T21:20:39.668Z,23.16
2018-07-23T21:23:08.149Z,23.15
2018-07-23T21:25:36.619Z,23.14
2018-07-23T21:28:05.017Z,23.14
2018-07-23T21:30:33.433Z,23.15
2018-07-23T21:33:02.057Z,23.15
2018-07-23T21:35:30.432Z,23.11
2018-07-23T21:37:58.816Z,23.05
2018-07-23T21:40:27.164Z,23.02
2018-07-23T21:42:55.464Z,22.95
2018-07-23T21:45:23.814Z,22.91
2018-07-23T21:47:52.286Z,22.85
2018-07-23T21:50:20.610Z,22.80
2018-07-23T21:52:48.930Z,22.78
2018-07-23T21:55:17.338Z,22.73
2018-07-23T21:57:45.783Z,22.69
2018-07-23T22:00:15.456Z,22.66
2018-07-23T22:02:43.795Z,22.61
2018-07-23T22:05:12.163Z,22.57
2018-07-23T22:07:40.919Z,22.54
2018-07-23T22:10:10.276Z,22.52
2018-07-23T22:12:38.634Z,22.44
2018-07-23T22:15:09.220Z,22.34
2018-07-23T22:17:37.837Z,22.24
2018-07-23T22:20:06.601Z,22.17
2018-07-23T22:22:34.955Z,22.14
2018-07-23T22:25:03.462Z,22.12
2018-07-23T22:27:31.934Z,22.12
2018-07-23T22:30:00.340Z,22.10
2018-07-23T22:32:28.684Z,22.09
2018-07-23T22:34:57.005Z,22.08
2018-07-23T22:37:25.338Z,22.06
2018-07-23T22:39:53.732Z,22.05
2018-07-23T22:42:23.016Z,22.05
2018-07-23T22:44:52.088Z,22.05
2018-07-23T22:47:20.422Z,22.03
2018-07-23T22:49:48.986Z,21.99
2018-07-23T22:52:17.696Z,21.95
2018-07-23T22:54:46.021Z,21.92
2018-07-23T22:57:14.518Z,21.88
2018-07-23T22:59:42.936Z,21.82
2018-07-23T23:02:11.298Z,21.77
2018-07-23T23:04:39.614Z,21.75
2018-07-23T23:07:07.994Z,21.69
2018-07-23T23:09:36.555Z,21.66
2018-07-23T23:12:04.977Z,21.60
2018-07-23T23:14:33.533Z,21.55
2018-07-23T23:17:01.915Z,21.56
2018-07-23T23:19:30.548Z,21.59
2018-07-23T23:21:59.031Z,21.60
2018-07-23T23:24:27.366Z,21.61
2018-07-23T23:26:55.695Z,21.58
2018-07-23T23:29:24.089Z,21.52
2018-07-23T23:31:52.471Z,21.48
2018-07-23T23:34:20.829Z,21.45
2018-07-23T23:36:49.156Z,21.38
2018-07-23T23:39:17.522Z,21.26
2018-07-23T23:41:46.006Z,21.18
2018-07-23T23:44:14.354Z,21.16
2018-07-23T23:46:42.844Z,21.14
2018-07-23T23:49:11.148Z,21.11
2018-07-23T23:51:39.498Z,21.05
2018-07-23T23:54:08.110Z,21.01
2018-07-23T23:56:36.487Z,20.98
2018-07-23T23:59:04.841Z,20.96
